sensor_id;sensor_type;location;lat;lon;timestamp;P1;durP1;ratioP1;P2;durP2;ratioP2
57093;SDS011;42970;50.996;3.706;2022-09-30T08:46:10;16.70;;;9.68;;
57093;SDS011;42970;50.996;3.706;2022-09-30T08:48:46;15.90;;;8.63;;
57093;SDS011;42970;50.996;3.706;2022-09-30T08:54:09;10.98;;;6.50;;
57093;SDS011;42970;50.996;3.706;2022-09-30T08:56:38;14.65;;;7.50;;
57093;SDS011;42970;50.996;3.706;2022-09-30T09:05:23;10.95;;;6.13;;
57093;SDS011;42970;50.996;3.706;2022-09-30T09:10:45;13.40;;;7.30;;
57093;SDS011;42970;50.996;3.706;2022-09-30T09:13:24;12.27;;;7.65;;
57093;SDS011;42970;50.996;3.706;2022-09-30T09:16:09;13.60;;;7.80;;
57093;SDS011;42970;50.996;3.706;2022-09-30T09:19:14;18.77;;;7.80;;
57093;SDS011;42970;50.996;3.706;2022-09-30T09:26:39;13.60;;;6.55;;
57093;SDS011;42970;50.996;3.706;2022-09-30T09:31:38;15.65;;;7.35;;
57093;SDS011;42970;50.996;3.706;2022-09-30T09:34:08;10.65;;;6.78;;
57093;SDS011;42970;50.996;3.706;2022-09-30T09:39:02;11.88;;;6.95;;
57093;SDS011;42970;50.996;3.706;2022-09-30T09:44:22;10.43;;;6.28;;
57093;SDS011;42970;50.996;3.706;2022-09-30T09:46:58;7.63;;;5.45;;
57093;SDS011;42970;50.996;3.706;2022-09-30T09:49:33;9.55;;;5.25;;
57093;SDS011;42970;50.996;3.706;2022-09-30T09:54:36;7.80;;;4.60;;
57093;SDS011;42970;50.996;3.706;2022-09-30T09:57:09;9.05;;;5.03;;
57093;SDS011;42970;50.996;3.706;2022-09-30T09:59:36;6.22;;;5.10;;
57093;SDS011;42970;50.996;3.706;2022-09-30T10:02:21;7.53;;;5.35;;
57093;SDS011;42970;50.996;3.706;2022-09-30T10:04:51;9.17;;;5.13;;
57093;SDS011;42970;50.996;3.706;2022-09-30T10:07:28;8.98;;;5.05;;
57093;SDS011;42970;50.996;3.706;2022-09-30T10:10:06;10.00;;;5.30;;
57093;SDS011;42970;50.996;3.706;2022-09-30T10:12:33;9.05;;;5.22;;
57093;SDS011;42970;50.996;3.706;2022-09-30T10:15:00;7.32;;;4.80;;
57093;SDS011;42970;50.996;3.706;2022-09-30T10:17:30;7.00;;;4.75;;
57093;SDS011;42970;50.996;3.706;2022-09-30T10:19:59;10.65;;;5.50;;
57093;SDS011;42970;50.996;3.706;2022-09-30T10:22:28;6.82;;;5.32;;
57093;SDS011;42970;50.996;3.706;2022-09-30T10:27:58;6.45;;;4.88;;
57093;SDS011;42970;50.996;3.706;2022-09-30T10:30:33;5.80;;;4.45;;
57093;SDS011;42970;50.996;3.706;2022-09-30T10:33:02;9.77;;;5.18;;
57093;SDS011;42970;50.996;3.706;2022-09-30T10:35:35;7.53;;;5.07;;
57093;SDS011;42970;50.996;3.706;2022-09-30T10:38:14;7.40;;;5.57;;
57093;SDS011;42970;50.996;3.706;2022-09-30T10:40:40;10.07;;;6.03;;
57093;SDS011;42970;50.996;3.706;2022-09-30T10:43:57;7.90;;;5.88;;
57093;SDS011;42970;50.996;3.706;2022-09-30T10:46:07;9.15;;;5.97;;
57093;SDS011;42970;50.996;3.706;2022-09-30T10:48:34;13.23;;;5.95;;
57093;SDS011;42970;50.996;3.706;2022-09-30T10:51:01;10.52;;;6.18;;
57093;SDS011;42970;50.996;3.706;2022-09-30T10:53:28;8.18;;;4.65;;
57093;SDS011;42970;50.996;3.706;2022-09-30T10:55:57;10.40;;;6.05;;
57093;SDS011;42970;50.996;3.706;2022-09-30T11:00:59;8.45;;;5.97;;
57093;SDS011;42970;50.996;3.706;2022-09-30T11:03:53;7.95;;;5.65;;
57093;SDS011;42970;50.996;3.706;2022-09-30T11:06:22;7.63;;;5.32;;
57093;SDS011;42970;50.996;3.706;2022-09-30T11:09:00;14.82;;;5.82;;
57093;SDS011;42970;50.996;3.706;2022-09-30T11:11:36;8.25;;;5.57;;
57093;SDS011;42970;50.996;3.706;2022-09-30T11:19:38;8.50;;;4.82;;
57093;SDS011;42970;50.996;3.706;2022-09-30T11:22:42;8.20;;;5.07;;
57093;SDS011;42970;50.996;3.706;2022-09-30T11:25:21;11.32;;;5.70;;
57093;SDS011;42970;50.996;3.706;2022-09-30T11:33:40;7.55;;;4.30;;
57093;SDS011;42970;50.996;3.706;2022-09-30T11:36:21;5.88;;;3.53;;
57093;SDS011;42970;50.996;3.706;2022-09-30T11:41:31;4.80;;;3.83;;
57093;SDS011;42970;50.996;3.706;2022-09-30T11:52:54;4.15;;;3.58;;
57093;SDS011;42970;50.996;3.706;2022-09-30T11:58:19;6.40;;;3.30;;
57093;SDS011;42970;50.996;3.706;2022-09-30T12:00:51;5.85;;;3.08;;
57093;SDS011;42970;50.996;3.706;2022-09-30T12:03:37;5.70;;;3.10;;
57093;SDS011;42970;50.996;3.706;2022-09-30T12:06:16;6.57;;;3.15;;
57093;SDS011;42970;50.996;3.706;2022-09-30T12:08:57;4.32;;;3.13;;
57093;SDS011;42970;50.996;3.706;2022-09-30T12:11:50;10.85;;;3.40;;
57093;SDS011;42970;50.996;3.706;2022-09-30T12:14:15;6.03;;;3.90;;
57093;SDS011;42970;50.996;3.706;2022-09-30T12:16:46;4.85;;;3.38;;
57093;SDS011;42970;50.996;3.706;2022-09-30T12:19:14;4.22;;;3.50;;
57093;SDS011;42970;50.996;3.706;2022-09-30T12:21:46;10.25;;;5.85;;
57093;SDS011;42970;50.996;3.706;2022-09-30T12:24:34;7.43;;;4.43;;
57093;SDS011;42970;50.996;3.706;2022-09-30T12:27:03;5.82;;;3.80;;
57093;SDS011;42970;50.996;3.706;2022-09-30T12:29:35;6.97;;;4.10;;
57093;SDS011;42970;50.996;3.706;2022-09-30T12:46:44;4.95;;;3.50;;
57093;SDS011;42970;50.996;3.706;2022-09-30T12:49:24;5.72;;;3.65;;
57093;SDS011;42970;50.996;3.706;2022-09-30T12:51:57;4.35;;;3.22;;
57093;SDS011;42970;50.996;3.706;2022-09-30T12:56:56;4.35;;;3.10;;
57093;SDS011;42970;50.996;3.706;2022-09-30T12:59:29;6.13;;;3.28;;
57093;SDS011;42970;50.996;3.706;2022-09-30T13:01:56;3.97;;;2.85;;
57093;SDS011;42970;50.996;3.706;2022-09-30T13:04:34;4.65;;;2.60;;
57093;SDS011;42970;50.996;3.706;2022-09-30T13:09:36;5.82;;;2.63;;
57093;SDS011;42970;50.996;3.706;2022-09-30T13:12:23;7.50;;;2.92;;
57093;SDS011;42970;50.996;3.706;2022-09-30T13:23:45;4.72;;;2.55;;
57093;SDS011;42970;50.996;3.706;2022-09-30T13:31:25;3.03;;;2.08;;
57093;SDS011;42970;50.996;3.706;2022-09-30T13:36:29;3.83;;;2.22;;
57093;SDS011;42970;50.996;3.706;2022-09-30T13:44:49;3.47;;;1.92;;
57093;SDS011;42970;50.996;3.706;2022-09-30T13:47:32;4.05;;;2.40;;
57093;SDS011;42970;50.996;3.706;2022-09-30T13:52:52;2.53;;;1.95;;
57093;SDS011;42970;50.996;3.706;2022-09-30T13:55:26;3.05;;;2.10;;
57093;SDS011;42970;50.996;3.706;2022-09-30T14:03:34;4.97;;;2.20;;
57093;SDS011;42970;50.996;3.706;2022-09-30T14:06:06;4.93;;;1.80;;
57093;SDS011;42970;50.996;3.706;2022-09-30T14:08:53;3.00;;;2.00;;
57093;SDS011;42970;50.996;3.706;2022-09-30T14:22:51;3.55;;;2.75;;
57093;SDS011;42970;50.996;3.706;2022-09-30T14:25:17;7.32;;;2.50;;
57093;SDS011;42970;50.996;3.706;2022-09-30T14:32:55;6.40;;;2.25;;
57093;SDS011;42970;50.996;3.706;2022-09-30T14:35:23;19.63;;;3.58;;
57093;SDS011;42970;50.996;3.706;2022-09-30T14:38:02;9.90;;;3.47;;
57093;SDS011;42970;50.996;3.706;2022-09-30T14:40:32;4.57;;;2.00;;
57093;SDS011;42970;50.996;3.706;2022-09-30T14:43:01;2.60;;;2.03;;
57093;SDS011;42970;50.996;3.706;2022-09-30T14:45:31;2.10;;;1.88;;
57093;SDS011;42970;50.996;3.706;2022-09-30T14:48:09;4.38;;;2.40;;
57093;SDS011;42970;50.996;3.706;2022-09-30T14:50:46;3.67;;;1.95;;
57093;SDS011;42970;50.996;3.706;2022-09-30T14:53:28;2.50;;;1.90;;
57093;SDS011;42970;50.996;3.706;2022-09-30T14:55:54;3.72;;;1.80;;
57093;SDS011;42970;50.996;3.706;2022-09-30T15:03:20;4.43;;;1.88;;
57093;SDS011;42970;50.996;3.706;2022-09-30T15:05:46;5.90;;;1.90;;
57093;SDS011;42970;50.996;3.706;2022-09-30T15:08:12;4.30;;;1.30;;
57093;SDS011;42970;50.996;3.706;2022-09-30T15:10:52;3.65;;;1.85;;
57093;SDS011;42970;50.996;3.706;2022-09-30T15:13:20;3.78;;;1.80;;
57093;SDS011;42970;50.996;3.706;2022-09-30T15:20:48;2.72;;;1.35;;
57093;SDS011;42970;50.996;3.706;2022-09-30T15:23:15;2.17;;;1.40;;
57093;SDS011;42970;50.996;3.706;2022-09-30T15:25:52;2.33;;;1.48;;
57093;SDS011;42970;50.996;3.706;2022-09-30T15:28:19;2.42;;;1.77;;
57093;SDS011;42970;50.996;3.706;2022-09-30T15:30:44;1.52;;;1.30;;
57093;SDS011;42970;50.996;3.706;2022-09-30T15:33:15;4.18;;;1.98;;
57093;SDS011;42970;50.996;3.706;2022-09-30T15:35:43;5.78;;;1.42;;
57093;SDS011;42970;50.996;3.706;2022-09-30T15:38:20;1.75;;;1.40;;
57093;SDS011;42970;50.996;3.706;2022-09-30T15:40:56;4.82;;;1.42;;
57093;SDS011;42970;50.996;3.706;2022-09-30T15:46:21;4.00;;;1.30;;
57093;SDS011;42970;50.996;3.706;2022-09-30T15:48:58;3.97;;;1.42;;
57093;SDS011;42970;50.996;3.706;2022-09-30T15:56:31;2.65;;;1.52;;
57093;SDS011;42970;50.996;3.706;2022-09-30T15:59:02;1.40;;;1.23;;
57093;SDS011;42970;50.996;3.706;2022-09-30T16:04:09;3.30;;;1.73;;
57093;SDS011;42970;50.996;3.706;2022-09-30T16:06:51;4.15;;;1.70;;
57093;SDS011;42970;50.996;3.706;2022-09-30T16:09:22;3.38;;;1.23;;
57093;SDS011;42970;50.996;3.706;2022-09-30T16:11:56;3.95;;;1.83;;
57093;SDS011;42970;50.996;3.706;2022-09-30T16:14:26;4.00;;;1.80;;
57093;SDS011;42970;50.996;3.706;2022-09-30T16:16:55;1.63;;;1.50;;
57093;SDS011;42970;50.996;3.706;2022-09-30T16:19:23;4.15;;;1.40;;
57093;SDS011;42970;50.996;3.706;2022-09-30T16:21:50;7.63;;;1.50;;
57093;SDS011;42970;50.996;3.706;2022-09-30T16:26:45;2.63;;;1.85;;
57093;SDS011;42970;50.996;3.706;2022-09-30T16:29:10;2.72;;;2.08;;
57093;SDS011;42970;50.996;3.706;2022-09-30T16:31:36;1.20;;;1.10;;
57093;SDS011;42970;50.996;3.706;2022-09-30T16:34:01;6.22;;;1.73;;
57093;SDS011;42970;50.996;3.706;2022-09-30T16:36:27;4.60;;;1.65;;
57093;SDS011;42970;50.996;3.706;2022-09-30T16:38:52;2.25;;;1.80;;
57093;SDS011;42970;50.996;3.706;2022-09-30T16:41:17;13.55;;;1.90;;
57093;SDS011;42970;50.996;3.706;2022-09-30T16:43:43;2.58;;;1.75;;
57093;SDS011;42970;50.996;3.706;2022-09-30T16:46:08;2.13;;;1.80;;
57093;SDS011;42970;50.996;3.706;2022-09-30T16:48:34;3.00;;;1.73;;
57093;SDS011;42970;50.996;3.706;2022-09-30T16:51:08;4.47;;;1.95;;
57093;SDS011;42970;50.996;3.706;2022-09-30T16:53:37;3.05;;;1.95;;
57093;SDS011;42970;50.996;3.706;2022-09-30T16:56:03;3.38;;;1.48;;
57093;SDS011;42970;50.996;3.706;2022-09-30T16:58:29;6.28;;;1.48;;
57093;SDS011;42970;50.996;3.706;2022-09-30T17:00:55;2.78;;;1.63;;
57093;SDS011;42970;50.996;3.706;2022-09-30T17:03:24;4.00;;;1.95;;
57093;SDS011;42970;50.996;3.706;2022-09-30T17:05:50;3.60;;;1.80;;
57093;SDS011;42970;50.996;3.706;2022-09-30T17:08:18;5.40;;;2.03;;
57093;SDS011;42970;50.996;3.706;2022-09-30T17:10:46;3.13;;;1.77;;
57093;SDS011;42970;50.996;3.706;2022-09-30T17:13:14;2.58;;;1.70;;
